Fayetteville, West Virginia
Current Conditions -  °F | °C
As of 2:51 PM on Thursday 23 Oct 2014 (Local Time) from KBKW Reporting Station
Overcast Overcast  
Wind Chill: 43°   Ceiling: 1800
Heat Index: 48°   Visibility: 10mi
Dew Point: 39°   Wind: 12mph
Humidity: 71%   Direction: 330°NNW
Pressure: 30.12"   Gusts: NA
Location:  38.05°N, 81.1°W
Report Text: KBKW 231851Z AUTO 33010KT 10SM OVC018 09/04 A3012 RMK AO2 SLP206 T00890039 TSNO
Loading
Personal Weather Stations






























Interactive Weather Map
Tropical Storm Tracking
New forecast layout! Learn more

10-Day Weather Forecast

Advertisements
Track Severe Weather on mobile